Time;durP1;ratioP1;P1;durP2;ratioP2;P2;SDS_P1;SDS_P2;PMS_P1;PMS_P2;Temp;Humidity;BMP_temperature;BMP_pressure;BME280_temperature;BME280_humidity;BME280_pressure;Samples;Min_cycle;Max_cycle;Signal;HPM_P1;HPM_P2
2022/03/22 00:03:46;;;;;;;12.88;7.43;;;;;;;5.28;26.24;101901.03;7711123;32;37837;-77
2022/03/22 00:08:03;;;;;;;12.52;7.37;;;;;;;5.22;26.55;101899.06;7710977;32;38652;-77
2022/03/22 00:12:19;;;;;;;16.37;8.13;;;;;;;5.32;26.64;101896.09;7711048;32;40500;-77
2022/03/22 00:16:36;;;;;;;14.52;8.15;;;;;;;5.35;26.55;101893.88;7710872;32;39973;-77
2022/03/22 00:21:12;;;;;;;13.32;7.85;;;;;;;5.51;26.46;101890.13;7710062;32;39258;-77
2022/03/22 00:25:29;;;;;;;12.57;7.00;;;;;;;5.47;26.16;101891.53;7710760;32;37863;-77
2022/03/22 00:29:45;;;;;;;10.75;7.45;;;;;;;5.65;25.82;101893.84;7710614;32;40181;-77
2022/03/22 00:34:01;;;;;;;12.35;7.50;;;;;;;5.42;25.84;101886.69;7710541;32;41188;-77
2022/03/22 00:38:18;;;;;;;12.10;7.43;;;;;;;5.26;25.88;101890.41;7710075;32;37702;-77
2022/03/22 00:42:34;;;;;;;13.85;7.45;;;;;;;5.21;25.81;101890.13;7710363;32;37341;-78
2022/03/22 00:46:50;;;;;;;14.05;7.72;;;;;;;4.98;26.89;101892.03;7710245;32;40088;-78
2022/03/22 00:51:06;;;;;;;17.52;8.27;;;;;;;4.76;28.37;101889.19;7709842;32;39998;-77
2022/03/22 00:55:23;;;;;;;15.00;7.57;;;;;;;4.66;29.57;101884.03;7709744;32;38015;-77
2022/03/22 01:04:14;;;;;;;23.17;7.80;;;;;;;4.79;30.50;101887.97;7709886;32;40037;-77
2022/03/22 01:08:30;;;;;;;13.20;6.72;;;;;;;4.78;28.40;101870.94;7709700;32;40701;-77
2022/03/22 01:12:47;;;;;;;13.80;7.40;;;;;;;4.40;27.91;101873.59;7709525;32;37752;-77
2022/03/22 01:17:03;;;;;;;13.00;6.93;;;;;;;4.49;28.11;101877.91;7709404;32;37842;-77
2022/03/22 01:21:19;;;;;;;15.18;7.62;;;;;;;4.95;27.04;101870.75;7709188;32;39536;-77
2022/03/22 01:25:37;;;;;;;15.98;7.20;;;;;;;4.77;27.41;101871.94;7709221;32;40663;-77
2022/03/22 01:29:53;;;;;;;11.73;7.22;;;;;;;4.64;27.81;101869.00;7709030;32;38581;-77
2022/03/22 01:34:09;;;;;;;12.65;6.87;;;;;;;4.63;27.89;101872.75;7709126;32;38284;-77
2022/03/22 01:38:25;;;;;;;13.48;6.90;;;;;;;4.57;28.35;101874.31;7708883;32;39358;-77
2022/03/22 01:42:41;;;;;;;12.85;7.37;;;;;;;4.58;28.29;101880.56;7710838;32;40849;-77
2022/03/22 01:47:01;;;;;;;11.00;6.85;;;;;;;4.65;28.60;101873.41;7712522;32;37681;-77
2022/03/22 01:51:20;;;;;;;14.45;7.43;;;;;;;4.74;28.43;101861.50;7699126;32;36883;-77
2022/03/22 01:55:37;;;;;;;11.80;7.32;;;;;;;4.95;27.52;101865.34;7712514;32;39402;-76
2022/03/22 01:59:53;;;;;;;11.82;6.55;;;;;;;4.96;27.40;101857.06;7712566;32;39810;-77
2022/03/22 02:08:43;;;;;;;14.90;6.80;;;;;;;4.56;27.83;101861.81;7714294;32;37299;-77
2022/03/22 02:13:00;;;;;;;13.32;6.82;;;;;;;4.80;27.63;101852.66;7713145;32;40169;-77
2022/03/22 02:17:16;;;;;;;11.73;6.80;;;;;;;4.69;27.51;101848.56;7712210;32;40392;-77
2022/03/22 02:21:35;;;;;;;12.77;7.25;;;;;;;4.53;27.59;101856.78;7711922;32;38709;-77
2022/03/22 02:25:51;;;;;;;12.20;7.45;;;;;;;4.49;27.79;101850.91;7698937;32;37686;-77
2022/03/22 02:30:10;;;;;;;14.68;7.32;;;;;;;4.58;27.75;101857.06;7712085;32;39083;-77
2022/03/22 02:34:25;;;;;;;12.98;7.50;;;;;;;4.66;27.75;101861.59;7712168;32;39043;-77
2022/03/22 02:38:42;;;;;;;11.57;7.30;;;;;;;4.54;27.45;101846.84;7711609;32;38652;-77
2022/03/22 02:43:01;;;;;;;11.18;6.72;;;;;;;4.54;27.36;101852.25;7711918;32;37072;-77
2022/03/22 02:47:17;;;;;;;12.02;7.12;;;;;;;4.56;27.54;101848.31;7697913;32;39519;-77
2022/03/22 02:51:36;;;;;;;15.25;7.75;;;;;;;4.60;27.81;101848.78;7711450;32;40784;-77
2022/03/22 02:55:52;;;;;;;12.25;6.68;;;;;;;4.36;28.31;101847.97;7711245;32;37930;-77
2022/03/22 03:00:11;;;;;;;13.80;7.30;;;;;;;4.43;29.15;101856.19;7711640;32;37202;-76
2022/03/22 03:04:26;;;;;;;12.95;7.22;;;;;;;4.34;29.21;101847.31;7711741;32;38218;-77
2022/03/22 03:08:42;;;;;;;9.63;6.78;;;;;;;4.60;28.84;101854.19;7697786;32;40723;-77
2022/03/22 03:13:00;;;;;;;10.50;6.45;;;;;;;4.31;29.07;101861.16;7711239;32;38586;-77
2022/03/22 03:17:16;;;;;;;12.65;6.93;;;;;;;4.42;29.00;101863.44;7711312;32;37699;-77
2022/03/22 03:21:33;;;;;;;13.70;7.45;;;;;;;4.20;29.25;101857.03;7711420;32;39277;-78
2022/03/22 03:25:49;;;;;;;13.23;7.32;;;;;;;4.16;28.70;101863.81;7698032;32;39975;-78
2022/03/22 03:30:06;;;;;;;13.05;7.43;;;;;;;4.20;29.40;101858.88;7697681;32;37854;-78
2022/03/22 03:34:22;;;;;;;12.77;7.25;;;;;;;4.21;28.85;101863.25;7711315;32;38062;-77
2022/03/22 03:38:41;;;;;;;14.68;7.65;;;;;;;3.96;29.63;101871.50;7711478;32;40068;-78
2022/03/22 03:42:57;;;;;;;10.88;6.90;;;;;;;3.94;29.94;101870.84;7711542;32;39778;-77
2022/03/22 03:47:14;;;;;;;14.73;7.30;;;;;;;4.18;29.65;101869.88;7711329;32;38182;-77
2022/03/22 03:51:30;;;;;;;12.45;7.55;;;;;;;4.06;29.95;101872.12;7711108;32;38050;-78
2022/03/22 03:55:46;;;;;;;15.70;7.82;;;;;;;3.97;30.20;101870.50;7711012;32;40047;-78
2022/03/22 04:00:04;;;;;;;13.40;6.80;;;;;;;3.93;30.72;101870.00;7711085;32;40005;-77
2022/03/22 04:04:20;;;;;;;12.88;6.82;;;;;;;3.80;31.01;101874.31;7710204;32;37874;-77
2022/03/22 04:08:36;;;;;;;13.70;7.45;;;;;;;3.63;31.14;101885.16;7697390;32;37506;-77
2022/03/22 04:12:52;;;;;;;15.23;8.80;;;;;;;3.64;31.52;101883.28;7710966;32;40290;-78
2022/03/22 04:17:09;;;;;;;13.65;8.00;;;;;;;3.59;31.88;101886.53;7710732;32;40832;-78
2022/03/22 04:21:24;;;;;;;14.50;7.55;;;;;;;3.43;32.42;101889.25;7710580;32;37851;-78
2022/03/22 04:25:41;;;;;;;12.75;7.07;;;;;;;3.29;32.90;101897.03;7696977;32;37252;-75
2022/03/22 04:34:32;;;;;;;11.43;7.78;;;;;;;3.52;32.06;101897.16;7710747;32;39966;-76
2022/03/22 04:38:48;;;;;;;13.30;7.75;;;;;;;3.47;32.08;101909.50;7709678;32;37820;-75
2022/03/22 04:43:05;;;;;;;13.15;7.10;;;;;;;3.54;31.92;101905.09;7710235;32;37269;-75
2022/03/22 04:47:20;;;;;;;14.95;7.28;;;;;;;3.43;32.11;101903.56;7710112;32;40177;-78
2022/03/22 05:00:46;;;;;;;12.85;8.18;;;;;;;3.08;33.00;101905.69;7709835;32;37188;-75
2022/03/22 05:05:02;;;;;;;14.70;7.68;;;;;;;3.06;33.32;101912.25;7708476;32;39401;-75
2022/03/22 05:09:18;;;;;;;16.02;8.25;;;;;;;3.11;33.08;101915.28;7709648;32;40791;-77
2022/03/22 05:13:34;;;;;;;12.90;7.43;;;;;;;2.97;33.55;101912.25;7709542;32;38656;-76
2022/03/22 05:17:51;;;;;;;17.67;9.02;;;;;;;2.89;33.97;101922.22;7711622;32;37078;-76
2022/03/22 05:22:07;;;;;;;15.20;8.73;;;;;;;2.99;34.16;101914.78;7712881;32;39335;-76
2022/03/22 05:26:26;;;;;;;16.40;8.90;;;;;;;2.94;35.38;101915.28;7712894;32;40836;-75
2022/03/22 05:30:42;;;;;;;14.63;8.13;;;;;;;3.05;35.60;101922.19;7712129;32;38735;-76
2022/03/22 05:34:58;;;;;;;14.15;8.77;;;;;;;3.00;36.36;101916.47;7712748;32;37099;-76
2022/03/22 05:39:14;;;;;;;16.67;8.65;;;;;;;3.09;36.42;101917.31;7715665;32;39401;-75
2022/03/22 05:43:31;;;;;;;22.62;8.90;;;;;;;3.03;37.05;101926.06;7713432;32;40165;-75
2022/03/22 05:47:47;;;;;;;15.57;8.15;;;;;;;3.24;36.30;101915.59;7712646;32;38590;-75
2022/03/22 05:52:04;;;;;;;17.23;8.68;;;;;;;3.10;35.31;101927.06;7714608;32;37174;-75
2022/03/22 05:56:20;;;;;;;17.45;7.72;;;;;;;3.48;34.61;101924.66;7721382;32;38934;-76
2022/03/22 06:00:37;;;;;;;19.95;9.43;;;;;;;3.41;35.41;101924.50;7712541;32;39899;-76
2022/03/22 06:04:53;;;;;;;15.23;8.40;;;;;;;3.56;35.16;101914.69;7698597;32;38653;-76
2022/03/22 06:09:11;;;;;;;14.65;8.23;;;;;;;3.65;34.81;101912.78;7712401;32;38289;-76
2022/03/22 06:13:27;;;;;;;14.50;8.80;;;;;;;3.74;34.92;101922.56;7712482;32;39390;-76
2022/03/22 06:17:51;;;;;;;14.70;8.40;;;;;;;3.87;34.81;101926.53;7712349;32;40020;-75
2022/03/22 06:22:07;;;;;;;16.75;8.73;;;;;;;4.18;34.04;101928.44;7735105;32;37754;-75
2022/03/22 06:26:23;;;;;;;13.00;8.10;;;;;;;4.33;33.49;101915.84;7685478;32;37096;-76
2022/03/22 06:30:39;;;;;;;18.52;8.27;;;;;;;4.74;32.25;101923.66;7685421;32;39093;-76
2022/03/22 06:34:55;;;;;;;15.07;8.40;;;;;;;4.60;31.09;101927.12;7671874;32;39782;-80
2022/03/22 06:39:11;;;;;;;17.00;8.10;;;;;;;5.06;30.29;101922.53;7685466;32;37606;-77
2022/03/22 06:43:27;;;;;;;13.57;8.32;;;;;;;5.29;29.00;101920.81;7685559;32;37670;-76
2022/03/22 06:47:44;;;;;;;16.27;8.80;;;;;;;5.62;28.27;101922.16;7685520;32;39847;-78
2022/03/22 06:52:00;;;;;;;12.55;7.70;;;;;;;5.70;27.69;101928.47;7729574;32;40222;-78
2022/03/22 06:56:16;;;;;;;14.82;7.60;;;;;;;5.88;28.34;101928.09;7738743;32;37881;-77
2022/03/22 07:00:33;;;;;;;13.95;7.80;;;;;;;6.19;27.99;101923.31;7727575;32;37138;-76
2022/03/22 07:04:49;;;;;;;16.85;8.32;;;;;;;6.19;27.88;101917.91;7711900;32;39346;-77
2022/03/22 07:09:05;;;;;;;20.42;9.13;;;;;;;6.38;31.95;101926.41;7711768;32;39745;-77
2022/03/22 07:13:21;;;;;;;18.15;7.95;;;;;;;6.58;32.76;101929.34;7711758;32;37766;-77
2022/03/22 07:17:38;;;;;;;16.12;8.93;;;;;;;6.98;32.78;101927.00;7711828;32;36919;-80
2022/03/22 07:21:54;;;;;;;16.75;8.73;;;;;;;7.58;38.84;101926.62;7711722;32;40058;-79
2022/03/22 07:26:10;;;;;;;17.33;9.85;;;;;;;7.51;34.19;101929.28;7711618;32;39895;-78
2022/03/22 07:30:26;;;;;;;19.58;9.57;;;;;;;7.81;34.37;101921.75;7711482;32;38617;-76
2022/03/22 07:34:42;;;;;;;27.23;13.43;;;;;;;7.62;38.67;101934.16;7711704;32;37897;-79
2022/03/22 07:38:58;;;;;;;24.05;13.80;;;;;;;7.70;34.39;101930.44;7710561;32;39324;-79
2022/03/22 07:43:14;;;;;;;25.37;13.62;;;;;;;7.98;33.71;101926.81;7707227;32;40126;-78
2022/03/22 07:47:30;;;;;;;26.60;15.07;;;;;;;8.23;33.47;101930.69;7711172;32;38071;-80
2022/03/22 07:56:21;;;;;;;30.67;15.73;;;;;;;8.50;32.46;101943.53;7711241;32;39115;-79
2022/03/22 08:00:39;;;;;;;24.85;14.57;;;;;;;8.79;31.33;101935.00;7710841;32;39714;-78
2022/03/22 08:04:55;;;;;;;22.75;13.77;;;;;;;9.00;30.95;101928.56;7710978;32;38559;-78
2022/03/22 08:09:12;;;;;;;23.17;12.07;;;;;;;9.19;29.27;101929.59;7710707;32;37042;-77
2022/03/22 08:13:29;;;;;;;24.05;11.98;;;;;;;8.99;29.04;101923.31;7710866;32;40177;-78
2022/03/22 08:17:45;;;;;;;19.85;11.68;;;;;;;9.14;26.99;101920.38;7710838;32;39912;-78
2022/03/22 08:22:01;;;;;;;22.45;13.02;;;;;;;9.60;26.90;101916.75;7710364;32;38457;-78
2022/03/22 08:26:17;;;;;;;21.92;12.20;;;;;;;9.93;27.08;101913.06;7710734;32;37154;-76
2022/03/22 08:30:34;;;;;;;21.85;12.15;;;;;;;10.38;26.24;101913.09;7710507;32;40064;-76
2022/03/22 08:34:50;;;;;;;23.35;11.90;;;;;;;10.59;25.62;101905.63;7710510;32;40835;-78
2022/03/22 08:39:06;;;;;;;23.12;12.50;;;;;;;10.73;24.66;101912.69;7709864;32;38772;-79
2022/03/22 08:43:25;;;;;;;25.02;12.48;;;;;;;10.65;24.63;101908.31;7709876;32;37097;-78
2022/03/22 08:47:42;;;;;;;24.27;11.57;;;;;;;11.10;23.82;101901.88;7708686;32;38984;-79
2022/03/22 08:51:58;;;;;;;23.12;12.40;;;;;;;11.45;24.43;101904.91;7707444;32;40984;-79
2022/03/22 08:56:15;;;;;;;23.40;12.73;;;;;;;11.67;22.89;101898.16;7709642;32;38060;-79
2022/03/22 09:00:35;;;;;;;25.02;13.62;;;;;;;11.91;23.84;101896.44;7707856;32;36732;-79
2022/03/22 09:09:29;;;;;;;24.27;14.18;;;;;;;12.58;24.61;101880.75;7707735;32;40924;-78
2022/03/22 09:13:45;;;;;;;28.20;13.62;;;;;;;12.30;24.53;101883.31;7708188;32;38013;-76
2022/03/22 09:18:01;;;;;;;23.83;13.40;;;;;;;12.92;23.67;101866.56;7709196;32;38114;-77
2022/03/22 09:22:17;;;;;;;28.58;13.30;;;;;;;13.67;23.02;101867.72;7682838;32;40118;-76
2022/03/22 09:26:33;;;;;;;22.50;13.50;;;;;;;13.53;22.78;101851.53;7682700;32;39973;-78
2022/03/22 09:30:49;;;;;;;21.65;12.90;;;;;;;14.27;21.48;101845.31;7682447;32;38056;-78
2022/03/22 09:35:07;;;;;;;20.15;11.48;;;;;;;14.51;20.67;101853.41;7681355;32;37018;-78
2022/03/22 09:39:24;;;;;;;18.80;11.05;;;;;;;15.21;18.84;101845.75;7704196;32;39902;-77
2022/03/22 09:43:48;;;;;;;34.05;12.95;;;;;;;15.50;16.06;101842.84;7708386;32;39642;-77
2022/03/22 09:48:06;;;;;;;20.00;11.88;;;;;;;15.27;16.22;101832.94;7691988;32;38028;-77
2022/03/22 09:52:23;;;;;;;19.65;11.18;;;;;;;15.54;15.87;101839.34;7710065;32;37087;-76
2022/03/22 09:56:40;;;;;;;21.10;11.88;;;;;;;15.63;15.67;101834.22;7733584;32;40047;-76
2022/03/22 10:00:57;;;;;;;21.95;11.85;;;;;;;15.52;15.52;101833.28;7735359;32;40722;-75
2022/03/22 10:05:23;;;;;;;18.10;10.88;;;;;;;16.44;14.77;101827.16;7738760;32;37803;-75
2022/03/22 10:09:40;;;;;;;21.08;12.48;;;;;;;16.10;14.82;101821.84;7714660;32;37206;-77
2022/03/22 10:13:57;;;;;;;20.30;11.75;;;;;;;16.73;15.04;101815.78;7712397;32;39401;-76
2022/03/22 10:18:13;;;;;;;19.00;10.35;;;;;;;17.01;14.21;101806.41;7713125;32;40890;-78
2022/03/22 10:22:29;;;;;;;22.52;10.82;;;;;;;15.64;14.70;101816.63;7712201;32;37768;-76
2022/03/22 10:26:46;;;;;;;18.00;11.05;;;;;;;16.82;14.15;101806.78;7712359;32;37829;-78
2022/03/22 10:31:03;;;;;;;16.25;10.18;;;;;;;17.74;13.59;101794.59;7712130;32;39275;-78
2022/03/22 10:35:25;;;;;;;18.45;10.10;;;;;;;17.50;14.12;101791.47;7698552;32;39924;-78
2022/03/22 10:39:41;;;;;;;18.62;10.38;;;;;;;17.86;13.13;101786.06;7722735;32;37774;-77
2022/03/22 10:44:20;;;;;;;16.92;9.32;;;;;;;18.10;12.85;101783.66;7738955;32;38132;-78
2022/03/22 10:48:36;;;;;;;17.42;9.88;;;;;;;18.75;12.82;101781.19;7734628;32;39249;-77
2022/03/22 10:52:55;;;;;;;16.55;9.43;;;;;;;18.25;12.60;101786.44;7711889;32;40865;-76
2022/03/22 10:57:14;;;;;;;16.65;9.65;;;;;;;18.97;12.22;101780.88;7712088;32;38535;-78
2022/03/22 11:01:31;;;;;;;15.95;10.10;;;;;;;19.04;11.95;101769.53;7698802;32;37888;-78
2022/03/22 11:05:51;;;;;;;15.63;9.48;;;;;;;18.52;12.31;101764.09;7712018;32;39127;-74
2022/03/22 11:10:08;;;;;;;17.55;9.82;;;;;;;19.50;11.82;101750.81;7711687;32;40628;-78
2022/03/22 11:14:25;;;;;;;19.95;9.98;;;;;;;19.83;12.01;101748.47;7711565;32;37829;-78
2022/03/22 11:18:42;;;;;;;18.10;9.75;;;;;;;20.05;11.13;101736.13;7690618;32;37215;-78
2022/03/22 11:23:00;;;;;;;21.10;10.55;;;;;;;20.15;11.84;101727.72;7698108;32;40058;-76
2022/03/22 11:27:16;;;;;;;19.37;10.20;;;;;;;20.10;10.74;101730.53;7711790;32;38824;-79
2022/03/22 11:31:33;;;;;;;19.95;10.30;;;;;;;19.49;11.33;101729.81;7711732;32;38664;-78
2022/03/22 11:35:53;;;;;;;19.45;10.75;;;;;;;19.86;11.00;101711.06;7698084;32;37916;-77
2022/03/22 11:45:07;;;;;;;16.80;10.05;;;;;;;19.63;11.50;101704.28;7711354;32;39976;-78
2022/03/22 11:49:23;;;;;;;18.60;10.85;;;;;;;20.43;11.31;101703.12;7711263;32;38680;-78
2022/03/22 11:53:44;;;;;;;16.20;9.60;;;;;;;20.70;10.61;101693.47;7723731;32;36961;-78
2022/03/22 11:58:08;;;;;;;16.27;9.32;;;;;;;21.12;10.34;101687.13;7738356;32;39410;-75
2022/03/22 12:02:30;;;;;;;16.00;9.60;;;;;;;21.66;10.07;101682.25;7738162;32;40837;-79
2022/03/22 12:06:52;;;;;;;16.17;9.50;;;;;;;19.69;11.04;101681.00;7718775;32;38742;-78
2022/03/22 12:11:16;;;;;;;16.35;8.55;;;;;;;20.49;10.72;101673.41;7697853;32;37540;-75
2022/03/22 12:15:32;;;;;;;18.98;9.90;;;;;;;20.99;10.16;101666.50;7698204;32;39223;-75
2022/03/22 12:19:48;;;;;;;17.33;9.90;;;;;;;21.79;9.64;101652.06;7711816;32;40921;-78
2022/03/22 12:24:05;;;;;;;26.20;10.43;;;;;;;20.82;10.25;101658.66;7710886;32;37914;-78
2022/03/22 12:28:21;;;;;;;16.25;9.65;;;;;;;22.52;9.92;101647.72;7710326;32;37055;-77
2022/03/22 12:32:37;;;;;;;16.48;9.40;;;;;;;22.45;9.97;101636.19;7710411;32;40037;-78
2022/03/22 12:36:53;;;;;;;16.73;10.00;;;;;;;21.73;9.65;101631.88;7715923;32;39839;-77
2022/03/22 12:41:09;;;;;;;18.25;9.07;;;;;;;22.29;9.86;101632.91;7737344;32;37475;-78
2022/03/22 12:45:28;;;;;;;15.15;9.20;;;;;;;22.17;10.41;101618.66;7736814;32;37077;-78
2022/03/22 12:49:44;;;;;;;13.82;8.45;;;;;;;22.48;9.39;101618.91;7736440;32;39192;-77
2022/03/22 12:54:03;;;;;;;19.48;8.35;;;;;;;22.49;9.32;101614.97;7733103;32;40053;-77
2022/03/22 12:58:27;;;;;;;15.57;9.25;;;;;;;22.08;9.80;101597.13;7737012;32;37945;-80
2022/03/22 13:02:46;;;;;;;14.48;8.82;;;;;;;22.33;9.47;101594.22;7736250;32;36186;-78
2022/03/22 13:07:05;;;;;;;17.55;8.45;;;;;;;22.60;9.65;101588.66;7714651;32;40107;-77
2022/03/22 13:11:27;;;;;;;15.45;9.00;;;;;;;23.15;9.24;101582.19;7709561;32;40360;-78
2022/03/22 13:15:53;;;;;;;26.27;9.18;;;;;;;22.48;9.36;101575.25;7708956;32;37668;-78
2022/03/22 13:20:21;;;;;;;15.20;8.85;;;;;;;22.43;9.52;101567.03;7710623;32;37111;-78
2022/03/22 13:24:37;;;;;;;13.05;8.68;;;;;;;22.27;9.96;101562.91;7736002;32;40102;-77
2022/03/22 13:28:53;;;;;;;14.60;7.95;;;;;;;22.13;9.70;101558.16;7735409;32;39765;-77
2022/03/22 13:33:17;;;;;;;13.70;7.90;;;;;;;22.51;9.58;101548.81;7735547;32;37626;-77
2022/03/22 13:37:49;;;;;;;21.73;7.90;;;;;;;22.47;9.68;101548.63;7736366;32;37362;-76
2022/03/22 13:42:17;;;;;;;12.73;7.60;;;;;;;22.43;9.44;101550.38;7738927;32;39128;-76
2022/03/22 13:46:33;;;;;;;15.55;8.25;;;;;;;22.62;9.83;101541.91;7739586;32;40804;-77
2022/03/22 13:50:51;;;;;;;16.12;7.50;;;;;;;22.44;9.84;101540.09;7704152;32;38059;-76
2022/03/22 13:55:18;;;;;;;14.00;8.10;;;;;;;22.87;8.97;101536.94;7712361;32;36895;-77
2022/03/22 13:59:43;;;;;;;15.68;7.90;;;;;;;22.75;9.46;101537.47;7712160;32;39249;-76
2022/03/22 14:04:04;;;;;;;14.23;8.38;;;;;;;23.02;9.48;101524.63;7712291;32;39790;-76
2022/03/22 14:08:20;;;;;;;15.93;8.20;;;;;;;23.36;8.89;101512.97;7712032;32;37898;-77
2022/03/22 14:12:36;;;;;;;15.65;7.78;;;;;;;23.33;9.34;101515.56;7711719;32;37439;-76
2022/03/22 14:16:52;;;;;;;17.60;7.22;;;;;;;23.20;9.16;101508.94;7711465;32;39346;-77
2022/03/22 14:21:08;;;;;;;20.23;7.82;;;;;;;22.84;9.47;101504.19;7711289;32;40814;-77
2022/03/22 14:25:27;;;;;;;11.05;6.60;;;;;;;23.96;8.47;101505.31;7711765;32;37935;-77
2022/03/22 14:29:44;;;;;;;16.40;6.65;;;;;;;23.76;8.85;101499.13;7712061;32;37058;-78
2022/03/22 14:34:00;;;;;;;12.40;6.62;;;;;;;23.73;8.45;101485.00;7711498;32;39368;-78
2022/03/22 14:38:28;;;;;;;11.30;6.78;;;;;;;23.38;8.75;101480.06;7711778;32;40003;-77
2022/03/22 14:42:44;;;;;;;12.25;6.70;;;;;;;23.20;8.78;101472.78;7711547;32;38905;-77
2022/03/22 14:47:01;;;;;;;13.80;6.60;;;;;;;23.36;8.62;101475.97;7711802;32;37151;-78
2022/03/22 14:54:02;;;;;;;10.75;5.95;;;;;;;23.43;8.76;101459.66;7710902;32;40027;-79
2022/03/22 15:00:34;;;;;;;11.10;6.15;;;;;;;23.75;8.80;101449.31;7711734;32;38532;-78
2022/03/22 15:04:51;;;;;;;11.55;5.53;;;;;;;23.48;8.87;101445.59;7711097;32;38180;-76
2022/03/22 15:09:08;;;;;;;10.85;6.00;;;;;;;23.44;8.83;101439.84;7710435;32;39441;-78
2022/03/22 15:13:25;;;;;;;10.90;5.30;;;;;;;23.34;8.86;101440.13;7710878;32;39909;-78
2022/03/22 15:17:42;;;;;;;10.00;5.30;;;;;;;23.58;9.01;101427.81;7711149;32;37481;-78
2022/03/22 15:21:59;;;;;;;12.73;5.30;;;;;;;23.17;9.58;101435.25;7711326;32;37934;-77
2022/03/22 15:26:15;;;;;;;9.48;5.00;;;;;;;23.33;9.57;101420.97;7711065;32;40224;-76
2022/03/22 15:30:36;;;;;;;10.85;4.85;;;;;;;22.90;10.00;101421.47;7711206;32;40105;-77
2022/03/22 15:34:53;;;;;;;16.17;5.72;;;;;;;21.77;10.54;101427.53;7710968;32;38708;-78
2022/03/22 15:39:09;;;;;;;11.23;4.65;;;;;;;22.34;10.50;101430.00;7710744;32;37186;-77
2022/03/22 15:43:25;;;;;;;10.93;5.12;;;;;;;22.39;10.05;101418.75;7710948;32;40173;-77
2022/03/22 15:47:44;;;;;;;9.88;5.00;;;;;;;22.07;10.45;101425.25;7710760;32;39971;-78
2022/03/22 15:52:00;;;;;;;10.90;5.20;;;;;;;21.75;10.82;101430.63;7711039;32;37050;-79
2022/03/22 15:56:16;;;;;;;11.05;5.22;;;;;;;21.44;11.23;101423.97;7710460;32;37949;-79
2022/03/22 16:00:32;;;;;;;13.65;5.78;;;;;;;22.05;10.95;101420.00;7709488;32;39487;-78
2022/03/22 16:04:49;;;;;;;9.10;5.32;;;;;;;22.21;10.58;101417.72;7710238;32;39959;-76
2022/03/22 16:09:05;;;;;;;11.00;5.50;;;;;;;23.57;9.44;101415.84;7710455;32;38663;-77
2022/03/22 16:13:21;;;;;;;8.68;5.03;;;;;;;23.36;9.99;101417.53;7710867;32;37071;-76
2022/03/22 16:17:42;;;;;;;15.63;5.75;;;;;;;24.11;9.76;101406.53;7710170;32;39388;-77
2022/03/22 16:21:58;;;;;;;11.18;6.45;;;;;;;27.49;7.63;101392.47;7710610;32;39916;-79
2022/03/22 16:26:16;;;;;;;13.70;7.32;;;;;;;28.98;6.55;101394.66;7709950;32;37834;-78
2022/03/22 16:30:34;;;;;;;15.63;8.25;;;;;;;29.72;5.81;101385.78;7710397;32;36253;-78
2022/03/22 16:39:25;;;;;;;14.80;7.30;;;;;;;30.06;5.42;101385.38;7710337;32;39923;-78
2022/03/22 16:43:45;;;;;;;15.10;8.43;;;;;;;29.70;5.59;101390.09;7710588;32;38863;-78
2022/03/22 16:48:01;;;;;;;16.27;8.45;;;;;;;28.98;5.81;101388.25;7710372;32;37098;-78
2022/03/22 16:52:21;;;;;;;19.55;7.90;;;;;;;27.97;6.39;101396.47;7710366;32;39384;-78
2022/03/22 16:56:37;;;;;;;14.63;6.97;;;;;;;26.34;7.40;101402.28;7710334;32;39810;-78
2022/03/22 17:00:53;;;;;;;12.68;6.78;;;;;;;24.87;8.50;101394.97;7710267;32;38508;-78
2022/03/22 17:05:13;;;;;;;13.10;6.80;;;;;;;23.73;9.49;101401.47;7709665;32;37781;-77
2022/03/22 17:09:31;;;;;;;17.90;6.95;;;;;;;22.72;10.36;101401.06;7709711;32;39994;-77
2022/03/22 17:13:49;;;;;;;14.80;7.50;;;;;;;21.88;11.22;101406.75;7712383;32;40126;-77
2022/03/22 17:18:05;;;;;;;19.40;9.95;;;;;;;21.24;11.63;101414.06;7712675;32;37937;-78
2022/03/22 17:22:23;;;;;;;29.37;13.38;;;;;;;20.69;12.49;101414.69;7699536;32;37756;-78
2022/03/22 17:26:39;;;;;;;29.15;9.45;;;;;;;20.08;13.04;101414.41;7699162;32;40143;-76
2022/03/22 17:30:56;;;;;;;21.48;8.95;;;;;;;19.71;13.31;101407.63;7712873;32;39584;-77
2022/03/22 17:35:22;;;;;;;18.12;8.45;;;;;;;19.26;13.65;101413.31;7712761;32;37553;-78
2022/03/22 17:39:39;;;;;;;16.48;8.23;;;;;;;18.92;14.18;101416.09;7712867;32;37245;-76
2022/03/22 17:43:56;;;;;;;15.57;7.72;;;;;;;18.36;14.36;101417.31;7712677;32;39235;-77
2022/03/22 17:48:12;;;;;;;23.58;10.63;;;;;;;18.04;14.51;101426.00;7712158;32;40794;-76
2022/03/22 17:52:28;;;;;;;29.35;13.70;;;;;;;17.73;14.82;101437.97;7697838;32;37965;-76
2022/03/22 17:56:44;;;;;;;23.80;11.02;;;;;;;17.62;14.86;101426.09;7712268;32;37490;-77
2022/03/22 18:01:00;;;;;;;13.35;7.50;;;;;;;17.31;15.50;101432.78;7712297;32;40079;-77
2022/03/22 18:05:18;;;;;;;15.35;6.97;;;;;;;17.04;15.83;101434.72;7712122;32;41030;-78
2022/03/22 18:09:35;;;;;;;18.37;7.87;;;;;;;16.93;15.81;101433.06;7712172;32;40052;-77
2022/03/22 18:13:51;;;;;;;14.63;7.82;;;;;;;16.79;16.00;101429.97;7698472;32;37046;-77
2022/03/22 18:18:07;;;;;;;15.02;8.93;;;;;;;16.59;16.02;101430.78;7698296;32;40034;-77
2022/03/22 18:22:27;;;;;;;15.70;7.75;;;;;;;16.52;15.94;101433.81;7698365;32;40767;-77
2022/03/22 18:26:44;;;;;;;16.10;7.47;;;;;;;16.31;16.22;101437.59;7712000;32;38804;-77
2022/03/22 18:31:00;;;;;;;10.73;6.25;;;;;;;16.15;16.76;101443.03;7698412;32;37122;-77
2022/03/22 18:35:17;;;;;;;13.27;6.80;;;;;;;15.86;17.07;101441.81;7697779;32;40108;-77
2022/03/22 18:39:34;;;;;;;10.98;6.72;;;;;;;15.79;17.21;101443.97;7711893;32;38460;-77
2022/03/22 18:43:50;;;;;;;13.25;6.55;;;;;;;15.45;17.52;101444.25;7711488;32;38454;-75
2022/03/22 18:48:07;;;;;;;16.42;7.62;;;;;;;15.44;17.32;101448.13;7711590;32;37150;-75
2022/03/22 18:52:23;;;;;;;13.18;7.32;;;;;;;15.36;17.56;101444.75;7711831;32;40138;-76
2022/03/22 18:56:59;;;;;;;12.07;6.75;;;;;;;15.03;18.17;101443.13;7684398;32;40151;-76
2022/03/22 19:01:18;;;;;;;12.23;6.87;;;;;;;14.92;18.13;101446.84;7684746;32;38037;-75
2022/03/22 19:05:34;;;;;;;12.52;6.50;;;;;;;14.76;18.32;101444.00;7684550;32;36162;-76
2022/03/22 19:09:50;;;;;;;12.23;6.93;;;;;;;14.73;18.59;101454.63;7696297;32;39416;-76
2022/03/22 19:14:06;;;;;;;14.60;6.93;;;;;;;14.42;18.94;101452.38;7684969;32;39933;-75
2022/03/22 19:18:22;;;;;;;15.35;7.40;;;;;;;14.43;18.45;101444.97;7684129;32;38805;-75
2022/03/22 19:22:39;;;;;;;14.00;6.90;;;;;;;14.22;19.08;101450.22;7684870;32;37718;-74
2022/03/22 19:26:55;;;;;;;16.52;7.00;;;;;;;13.96;19.13;101456.47;7684488;32;40013;-76
2022/03/22 19:35:49;;;;;;;12.02;6.95;;;;;;;13.79;19.77;101460.06;7684327;32;37937;-75
2022/03/22 19:40:05;;;;;;;13.93;7.35;;;;;;;13.47;20.37;101465.34;7683835;32;36331;-75
2022/03/22 19:44:21;;;;;;;10.07;6.68;;;;;;;13.29;20.66;101466.41;7684497;32;39177;-76
2022/03/22 19:48:58;;;;;;;12.73;7.40;;;;;;;13.15;20.96;101466.72;7682883;32;40352;-75
2022/03/22 19:53:17;;;;;;;12.13;6.78;;;;;;;13.06;21.05;101472.88;7693850;32;37905;-75
2022/03/22 19:57:33;;;;;;;11.02;6.15;;;;;;;12.82;21.17;101469.44;7728485;32;37918;-75
2022/03/22 20:01:49;;;;;;;11.15;7.00;;;;;;;12.81;21.28;101470.50;7713084;32;38978;-74
2022/03/22 20:06:05;;;;;;;14.50;6.90;;;;;;;12.75;21.24;101477.81;7690255;32;39769;-75
2022/03/22 20:10:23;;;;;;;11.93;6.55;;;;;;;12.35;21.86;101476.75;7710380;32;37791;-75
2022/03/22 20:14:44;;;;;;;12.88;6.57;;;;;;;12.38;22.04;101478.16;7710957;32;37196;-75
2022/03/22 20:19:01;;;;;;;11.80;6.78;;;;;;;11.85;22.54;101490.97;7719822;32;40063;-75
2022/03/22 20:23:19;;;;;;;10.30;5.87;;;;;;;11.88;22.63;101486.91;7708234;32;39071;-75
2022/03/22 20:27:37;;;;;;;11.10;6.35;;;;;;;12.02;22.63;101481.00;7709099;32;37992;-76
2022/03/22 20:31:53;;;;;;;13.30;6.03;;;;;;;12.13;22.67;101486.69;7711629;32;36082;-75
2022/03/22 20:36:10;;;;;;;12.57;6.97;;;;;;;11.71;22.90;101490.38;7737161;32;40047;-75
2022/03/22 20:40:26;;;;;;;13.88;6.82;;;;;;;11.43;23.17;101472.81;7723628;32;39975;-75